Time;durP1;ratioP1;P1;durP2;ratioP2;P2;SDS_P1;SDS_P2;PMS_P1;PMS_P2;Temp;Humidity;BMP_temperature;BMP_pressure;BME280_temperature;BME280_humidity;BME280_pressure;Samples;Min_cycle;Max_cycle;Signal;HPM_P1;HPM_P2
2021/12/03 00:02:05;;;;;;;13.85;6.15;;;;;;;1.60;74.23;99175.22;1670963;84;27521;-79
2021/12/03 00:04:32;;;;;;;12.60;5.65;;;;;;;1.58;74.12;99176.19;1670013;84;25875;-79
2021/12/03 00:06:58;;;;;;;10.72;5.67;;;;;;;1.57;74.15;99182.97;1671268;85;25804;-79
2021/12/03 00:09:24;;;;;;;15.38;6.47;;;;;;;1.58;74.29;99183.31;1672416;85;25750;-79
2021/12/03 00:11:51;;;;;;;12.53;6.17;;;;;;;1.55;74.17;99183.14;1671773;84;25920;-79
2021/12/03 00:14:17;;;;;;;12.10;6.25;;;;;;;1.53;74.22;99184.28;1672120;85;27468;-78
2021/12/03 00:16:43;;;;;;;11.78;6.05;;;;;;;1.53;74.24;99185.60;1671597;84;25750;-79
2021/12/03 00:19:09;;;;;;;13.25;6.12;;;;;;;1.53;74.36;99193.03;1672172;85;26552;-79
2021/12/03 00:21:37;;;;;;;11.85;6.25;;;;;;;1.52;74.46;99197.97;1672091;85;25925;-79
2021/12/03 00:24:04;;;;;;;14.13;6.45;;;;;;;1.52;74.41;99201.92;1669307;85;26083;-79
2021/12/03 00:26:32;;;;;;;12.65;6.92;;;;;;;1.54;74.45;99204.39;1671987;85;27480;-79
2021/12/03 00:28:59;;;;;;;11.33;6.17;;;;;;;1.53;74.45;99210.67;1671349;85;25810;-79
2021/12/03 00:31:25;;;;;;;15.48;6.85;;;;;;;1.53;74.46;99223.87;1672124;85;26439;-79
2021/12/03 00:33:51;;;;;;;12.63;5.37;;;;;;;1.51;74.41;99224.03;1671962;85;25871;-78
2021/12/03 00:36:17;;;;;;;15.43;7.10;;;;;;;1.51;74.62;99217.44;1671578;84;26414;-79
2021/12/03 00:38:48;;;;;;;19.20;7.62;;;;;;;1.50;74.63;99218.90;1672006;85;28258;-79
2021/12/03 00:41:19;;;;;;;11.35;5.80;;;;;;;1.52;74.61;99231.44;1647324;85;25948;-79
2021/12/03 00:43:46;;;;;;;14.03;6.58;;;;;;;1.53;74.66;99240.53;1672165;85;26483;-79
2021/12/03 00:46:16;;;;;;;13.15;6.28;;;;;;;1.52;74.70;99245.46;1672515;85;25806;-79
2021/12/03 00:48:45;;;;;;;10.70;5.75;;;;;;;1.53;74.73;99244.98;1671827;84;26067;-79
2021/12/03 00:51:13;;;;;;;15.58;7.03;;;;;;;1.53;74.73;99245.81;1671843;85;28324;-79
2021/12/03 00:53:40;;;;;;;12.37;6.25;;;;;;;1.53;74.69;99252.41;1672179;84;25920;-79
2021/12/03 00:56:08;;;;;;;14.33;7.08;;;;;;;1.53;74.71;99247.61;1671426;85;25816;-79
2021/12/03 00:58:35;;;;;;;12.53;5.97;;;;;;;1.54;74.77;99246.61;1672311;85;25885;-79
2021/12/03 01:01:04;;;;;;;14.43;6.40;;;;;;;1.53;74.77;99251.09;1672298;85;25791;-79
2021/12/03 01:03:30;;;;;;;15.75;7.08;;;;;;;1.52;74.90;99254.70;1668001;85;27563;-79
2021/12/03 01:05:56;;;;;;;18.87;7.08;;;;;;;1.50;74.94;99256.67;1671272;85;25335;-80
2021/12/03 01:08:22;;;;;;;18.98;7.08;;;;;;;1.48;75.07;99254.69;1672269;85;25843;-79
2021/12/03 01:10:49;;;;;;;14.90;6.45;;;;;;;1.49;75.04;99259.48;1668581;85;25812;-79
2021/12/03 01:13:16;;;;;;;14.33;6.40;;;;;;;1.45;75.02;99261.59;1672637;84;25889;-79
2021/12/03 01:15:43;;;;;;;12.55;6.55;;;;;;;1.42;75.06;99257.98;1672180;83;28232;-79
2021/12/03 01:18:11;;;;;;;13.55;6.97;;;;;;;1.41;75.29;99266.07;1668268;85;25897;-79
2021/12/03 01:20:39;;;;;;;17.50;6.20;;;;;;;1.39;75.28;99266.20;1669537;85;26549;-79
2021/12/03 01:23:07;;;;;;;10.93;6.05;;;;;;;1.37;75.46;99260.75;1669572;85;26216;-79
2021/12/03 01:25:35;;;;;;;14.70;7.25;;;;;;;1.34;75.55;99265.88;1672855;85;25916;-79
2021/12/03 01:28:02;;;;;;;13.25;6.50;;;;;;;1.33;75.67;99265.53;1671973;84;27691;-79
2021/12/03 01:30:30;;;;;;;17.95;6.58;;;;;;;1.33;75.77;99264.22;1672269;85;25983;-79
2021/12/03 01:32:59;;;;;;;16.32;6.75;;;;;;;1.34;75.83;99271.64;1672017;84;25594;-79
2021/12/03 01:35:28;;;;;;;13.25;5.90;;;;;;;1.35;75.88;99274.11;1668915;85;26207;-79
2021/12/03 01:37:54;;;;;;;10.80;5.75;;;;;;;1.34;76.01;99275.59;1671696;84;25942;-80
2021/12/03 01:40:26;;;;;;;14.28;6.30;;;;;;;1.33;76.06;99278.72;1671920;85;27557;-79
2021/12/03 01:42:54;;;;;;;11.97;5.97;;;;;;;1.35;76.22;99283.83;1672864;85;26603;-79
2021/12/03 01:45:28;;;;;;;14.55;6.25;;;;;;;1.34;76.30;99283.03;1671939;85;26514;-79
2021/12/03 01:47:56;;;;;;;13.03;5.80;;;;;;;1.36;76.35;99287.65;1672376;85;26221;-79
2021/12/03 01:50:30;;;;;;;13.15;4.95;;;;;;;1.38;76.42;99291.44;1672674;84;25886;-79
2021/12/03 01:52:57;;;;;;;14.75;7.30;;;;;;;1.39;76.50;99294.42;1670886;83;27484;-79
2021/12/03 01:55:24;;;;;;;12.10;6.37;;;;;;;1.40;76.50;99298.70;1669724;85;25938;-79
2021/12/03 01:57:51;;;;;;;12.75;6.70;;;;;;;1.41;76.65;99304.32;1672389;85;25907;-79
2021/12/03 02:00:40;;;;;;;8.88;5.47;;;;;;;1.42;76.77;99302.00;1668632;85;26477;-79
2021/12/03 02:03:07;;;;;;;12.43;5.62;;;;;;;1.43;76.92;99307.63;1668393;85;25927;-79
2021/12/03 02:05:36;;;;;;;9.30;5.65;;;;;;;1.43;76.90;99310.27;1672321;84;26918;-79
2021/12/03 02:08:03;;;;;;;11.78;6.55;;;;;;;1.43;77.01;99308.95;1671775;85;25881;-79
2021/12/03 02:10:30;;;;;;;12.33;6.10;;;;;;;1.46;77.04;99312.56;1672704;85;25831;-79
2021/12/03 02:12:56;;;;;;;9.70;4.62;;;;;;;1.49;77.12;99321.49;1672424;85;26409;-79
2021/12/03 02:15:22;;;;;;;10.72;4.70;;;;;;;1.49;77.18;99328.92;1672119;85;25795;-79
2021/12/03 02:17:50;;;;;;;13.68;5.30;;;;;;;1.49;77.23;99331.56;1671996;84;27531;-79
2021/12/03 02:20:17;;;;;;;11.43;5.85;;;;;;;1.48;77.24;99336.48;1669199;85;25864;-79
2021/12/03 02:22:44;;;;;;;13.43;6.33;;;;;;;1.49;77.43;99336.84;1672473;83;25804;-79
2021/12/03 02:25:16;;;;;;;12.58;5.65;;;;;;;1.49;77.45;99339.48;1672923;84;25637;-79
2021/12/03 02:27:44;;;;;;;13.53;6.28;;;;;;;1.48;77.34;99345.73;1673027;85;25827;-79
2021/12/03 02:30:11;;;;;;;13.78;6.87;;;;;;;1.46;77.50;99347.70;1672388;84;27441;-79
2021/12/03 02:32:38;;;;;;;11.25;6.05;;;;;;;1.47;77.58;99352.48;1665691;85;25800;-79
2021/12/03 02:35:06;;;;;;;13.40;7.25;;;;;;;1.48;77.58;99360.23;1672074;84;25819;-80
2021/12/03 02:37:32;;;;;;;11.85;6.45;;;;;;;1.47;77.64;99360.41;1671603;84;26532;-79
2021/12/03 02:39:59;;;;;;;12.75;5.72;;;;;;;1.49;77.71;99365.86;1672423;85;25764;-79
2021/12/03 02:42:25;;;;;;;12.33;6.42;;;;;;;1.49;77.81;99363.71;1672097;84;26928;-80
2021/12/03 02:44:51;;;;;;;11.85;5.72;;;;;;;1.48;77.85;99369.47;1671842;85;25865;-79
2021/12/03 02:47:18;;;;;;;10.25;5.75;;;;;;;1.48;77.91;99361.55;1670887;84;26023;-79
2021/12/03 02:49:47;;;;;;;11.40;6.33;;;;;;;1.48;77.94;99359.41;1671916;84;25766;-79
2021/12/03 02:52:14;;;;;;;11.30;6.12;;;;;;;1.49;78.04;99361.07;1672504;85;25933;-79
2021/12/03 02:54:40;;;;;;;8.83;5.28;;;;;;;1.50;78.04;99366.17;1672808;84;27530;-79
2021/12/03 02:57:07;;;;;;;10.38;5.95;;;;;;;1.51;78.39;99371.80;1672283;85;25778;-79
2021/12/03 02:59:34;;;;;;;12.03;6.55;;;;;;;1.50;78.25;99377.22;1672292;84;25889;-79
2021/12/03 03:02:01;;;;;;;11.97;7.05;;;;;;;1.49;78.31;99382.18;1668742;84;26199;-79
2021/12/03 03:04:28;;;;;;;8.98;6.42;;;;;;;1.50;78.64;99388.61;1672252;85;25952;-79
2021/12/03 03:06:54;;;;;;;18.95;8.30;;;;;;;1.50;78.54;99389.09;1672383;83;27518;-79
2021/12/03 03:09:20;;;;;;;11.50;7.45;;;;;;;1.51;78.78;99397.36;1672783;84;25358;-79
2021/12/03 03:11:47;;;;;;;11.97;6.95;;;;;;;1.50;78.71;99395.69;1672865;85;25876;-79
2021/12/03 03:14:13;;;;;;;11.43;6.20;;;;;;;1.51;78.92;99403.95;1671632;85;25931;-79
2021/12/03 03:16:40;;;;;;;13.28;6.72;;;;;;;1.50;79.14;99404.92;1672102;85;25934;-79
2021/12/03 03:19:16;;;;;;;12.47;6.15;;;;;;;1.51;79.22;99406.59;1672290;84;27473;-79
2021/12/03 03:21:44;;;;;;;11.28;6.58;;;;;;;1.48;79.31;99401.13;1668140;85;25844;-79
2021/12/03 03:24:12;;;;;;;13.55;6.40;;;;;;;1.49;79.44;99408.08;1671957;84;25832;-79
2021/12/03 03:26:41;;;;;;;12.75;7.53;;;;;;;1.53;79.40;99404.63;1672511;85;25944;-79
2021/12/03 03:29:12;;;;;;;10.15;6.30;;;;;;;1.55;79.42;99413.20;1672520;84;26549;-79
2021/12/03 03:31:40;;;;;;;10.50;5.60;;;;;;;1.58;79.47;99416.03;1672172;85;27530;-79
2021/12/03 03:34:08;;;;;;;11.93;7.30;;;;;;;1.58;79.57;99422.63;1671972;85;25740;-79
2021/12/03 03:36:42;;;;;;;14.40;6.87;;;;;;;1.58;79.51;99430.54;1671861;84;25846;-79
2021/12/03 03:39:12;;;;;;;12.73;6.42;;;;;;;1.59;79.58;99430.37;1671684;85;25943;-79
2021/12/03 03:41:38;;;;;;;14.23;7.28;;;;;;;1.60;79.69;99436.48;1672449;85;26003;-79
2021/12/03 03:44:06;;;;;;;14.23;7.35;;;;;;;1.58;79.79;99430.86;1668003;84;27506;-79
2021/12/03 03:46:32;;;;;;;13.75;7.20;;;;;;;1.60;79.83;99436.48;1672237;84;25893;-79
2021/12/03 03:48:59;;;;;;;12.55;7.72;;;;;;;1.60;79.89;99441.28;1672027;84;25399;-79
2021/12/03 03:51:25;;;;;;;15.72;8.60;;;;;;;1.60;79.72;99449.20;1663971;84;26820;-79
2021/12/03 03:53:51;;;;;;;15.10;8.33;;;;;;;1.60;79.68;99443.08;1646450;85;26123;-79
2021/12/03 03:56:18;;;;;;;13.20;8.08;;;;;;;1.60;79.64;99441.77;1672021;85;27548;-79
2021/12/03 03:58:44;;;;;;;11.03;7.20;;;;;;;1.60;79.40;99454.48;1671661;84;26571;-79
2021/12/03 04:01:14;;;;;;;13.83;6.95;;;;;;;1.61;79.40;99457.91;1671905;85;25814;-79
2021/12/03 04:03:45;;;;;;;11.22;6.92;;;;;;;1.62;79.26;99456.95;1672250;84;26239;-79
2021/12/03 04:06:08;;;;;;;11.75;7.53;;;;;;;1.62;79.15;99456.95;1666555;85;26053;-79
2021/12/03 04:08:34;;;;;;;14.28;6.75;;;;;;;1.63;79.07;99454.14;1672717;85;27531;-80
2021/12/03 04:11:02;;;;;;;10.38;6.67;;;;;;;1.65;78.68;99454.00;1671725;84;25748;-79
2021/12/03 04:13:28;;;;;;;8.63;5.65;;;;;;;1.66;78.53;99456.48;1665799;85;25917;-79
2021/12/03 04:15:54;;;;;;;9.63;5.85;;;;;;;1.66;77.97;99459.12;1671840;85;25862;-79
2021/12/03 04:18:21;;;;;;;7.72;5.53;;;;;;;1.66;77.18;99459.60;1672293;85;25856;-79
2021/12/03 04:20:47;;;;;;;8.10;5.17;;;;;;;1.65;77.02;99467.20;1672816;85;27551;-79
2021/12/03 04:23:18;;;;;;;8.25;4.83;;;;;;;1.63;76.06;99467.82;1670618;85;25904;-79
2021/12/03 04:25:43;;;;;;;9.40;5.55;;;;;;;1.60;76.28;99472.11;1670719;85;25749;-79
2021/12/03 04:28:09;;;;;;;6.62;5.20;;;;;;;1.63;76.30;99474.42;1670981;85;25820;-78
2021/12/03 04:30:35;;;;;;;7.75;5.47;;;;;;;1.64;76.14;99480.05;1671140;84;25694;-79
2021/12/03 04:33:02;;;;;;;9.63;6.37;;;;;;;1.64;76.47;99476.92;1671341;85;27474;-79
2021/12/03 04:35:29;;;;;;;11.00;5.85;;;;;;;1.66;76.88;99484.67;1670921;85;25807;-79
2021/12/03 04:37:56;;;;;;;8.63;6.15;;;;;;;1.64;76.97;99480.88;1671487;83;25741;-79
2021/12/03 04:40:24;;;;;;;9.03;6.70;;;;;;;1.63;77.11;99486.30;1672261;85;26016;-78
2021/12/03 04:42:51;;;;;;;11.30;6.15;;;;;;;1.64;76.72;99491.92;1672694;84;26529;-78
2021/12/03 04:45:21;;;;;;;8.25;5.97;;;;;;;1.63;76.53;99488.45;1672278;85;27463;-79
2021/12/03 04:47:50;;;;;;;13.25;6.72;;;;;;;1.62;76.63;99496.05;1671911;85;25416;-79
2021/12/03 04:50:18;;;;;;;10.03;6.33;;;;;;;1.64;76.79;99505.13;1672491;85;25576;-79
2021/12/03 04:52:45;;;;;;;10.13;7.12;;;;;;;1.63;76.91;99512.69;1672432;83;25882;-78
2021/12/03 04:55:13;;;;;;;7.92;5.17;;;;;;;1.62;77.14;99518.48;1670277;85;26094;-79
2021/12/03 04:57:40;;;;;;;9.30;5.65;;;;;;;1.62;77.50;99513.20;1669799;84;27471;-79
2021/12/03 05:00:12;;;;;;;9.40;5.87;;;;;;;1.58;77.61;99518.95;1671776;84;25856;-79
2021/12/03 05:02:39;;;;;;;8.23;6.08;;;;;;;1.54;77.50;99515.77;1667185;85;25835;-79
2021/12/03 05:05:06;;;;;;;6.62;4.90;;;;;;;1.52;77.74;99523.86;1670217;84;25807;-79
2021/12/03 05:10:08;;;;;;;7.42;4.70;;;;;;;1.46;77.29;99530.24;1671649;84;27486;-79
2021/12/03 05:12:34;;;;;;;6.33;4.25;;;;;;;1.42;77.16;99528.90;1672559;84;26361;-79
2021/12/03 05:15:01;;;;;;;7.47;4.35;;;;;;;1.39;77.02;99537.95;1673219;85;25770;-81
2021/12/03 05:17:27;;;;;;;7.00;4.22;;;;;;;1.37;76.79;99545.67;1673182;84;25857;-80
2021/12/03 05:19:53;;;;;;;5.80;4.00;;;;;;;1.34;76.73;99550.79;1672677;85;25740;-81
2021/12/03 05:22:19;;;;;;;5.15;3.52;;;;;;;1.31;76.34;99550.25;1672175;84;27549;-81
2021/12/03 05:24:46;;;;;;;6.33;3.92;;;;;;;1.30;76.08;99557.36;1673628;85;26595;-81
2021/12/03 05:27:17;;;;;;;5.75;3.98;;;;;;;1.28;76.05;99556.66;1671834;85;26609;-81
2021/12/03 05:29:46;;;;;;;8.23;4.40;;;;;;;1.28;76.23;99563.25;1671768;85;25996;-81
2021/12/03 05:32:13;;;;;;;5.33;4.12;;;;;;;1.27;75.97;99569.52;1671000;85;26827;-81
2021/12/03 05:34:39;;;;;;;6.10;4.15;;;;;;;1.23;75.79;99576.57;1672635;85;27443;-81
2021/12/03 05:37:08;;;;;;;4.37;3.77;;;;;;;1.19;75.65;99573.91;1672350;85;26067;-81
2021/12/03 05:39:36;;;;;;;6.30;4.35;;;;;;;1.15;75.43;99573.39;1672224;85;26238;-81
2021/12/03 05:42:04;;;;;;;5.58;4.33;;;;;;;1.09;75.34;99573.16;1672220;84;25721;-81
2021/12/03 05:44:31;;;;;;;4.78;3.85;;;;;;;1.02;75.19;99567.67;1672336;85;26005;-81
2021/12/03 05:46:59;;;;;;;4.87;3.85;;;;;;;1.01;75.31;99563.84;1672309;84;27520;-81
2021/12/03 05:49:27;;;;;;;6.20;3.80;;;;;;;0.96;75.49;99569.59;1672565;85;25364;-81
2021/12/03 05:51:55;;;;;;;6.37;4.87;;;;;;;0.95;75.65;99574.52;1672413;85;25792;-81
2021/12/03 05:54:22;;;;;;;6.65;4.50;;;;;;;0.95;75.87;99577.15;1672584;85;26358;-81
2021/12/03 05:56:48;;;;;;;8.88;5.65;;;;;;;0.94;76.02;99577.31;1646849;85;25912;-81
2021/12/03 05:59:15;;;;;;;7.33;5.40;;;;;;;0.91;76.34;99581.06;1672337;85;27638;-82
2021/12/03 06:01:41;;;;;;;10.25;7.15;;;;;;;0.89;76.55;99572.48;1672839;83;25331;-80
2021/12/03 06:04:07;;;;;;;11.08;6.45;;;;;;;0.89;76.70;99575.13;1671923;85;25822;-81
2021/12/03 06:06:33;;;;;;;8.53;5.67;;;;;;;0.90;76.84;99566.73;1673045;84;25446;-81
2021/12/03 06:09:00;;;;;;;8.78;6.17;;;;;;;0.84;76.75;99576.53;1672116;85;25875;-81
2021/12/03 06:11:26;;;;;;;10.45;6.78;;;;;;;0.80;76.97;99583.92;1671373;85;27450;-81
2021/12/03 06:13:53;;;;;;;12.47;7.95;;;;;;;0.77;77.17;99587.67;1672391;85;26145;-81
2021/12/03 06:16:19;;;;;;;13.83;7.53;;;;;;;0.74;77.29;99600.34;1672281;85;26177;-81
2021/12/03 06:18:45;;;;;;;10.85;7.58;;;;;;;0.71;77.50;99595.34;1672154;85;26209;-81
2021/12/03 06:21:14;;;;;;;10.10;6.95;;;;;;;0.68;77.69;99596.47;1672452;85;25860;-81
2021/12/03 06:23:41;;;;;;;8.93;6.72;;;;;;;0.65;77.83;99602.05;1672007;85;27554;-81
2021/12/03 06:26:09;;;;;;;7.92;5.67;;;;;;;0.63;77.87;99609.28;1672040;85;26015;-81
2021/12/03 06:28:39;;;;;;;9.85;6.75;;;;;;;0.62;78.18;99612.87;1672053;85;25387;-81
2021/12/03 06:31:06;;;;;;;10.78;6.28;;;;;;;0.62;78.38;99617.34;1672811;84;25470;-81
2021/12/03 06:33:32;;;;;;;8.98;6.62;;;;;;;0.63;78.51;99617.67;1672485;85;25928;-81
2021/12/03 06:35:59;;;;;;;9.55;6.90;;;;;;;0.66;78.58;99627.41;1673002;85;27462;-81
2021/12/03 06:38:26;;;;;;;8.55;6.17;;;;;;;0.68;78.70;99632.05;1672859;85;25891;-81
2021/12/03 06:40:54;;;;;;;9.35;6.20;;;;;;;0.68;78.65;99635.19;1672784;84;25800;-81
2021/12/03 06:43:21;;;;;;;8.55;5.45;;;;;;;0.68;78.50;99638.63;1671831;85;25605;-81
2021/12/03 06:45:47;;;;;;;7.80;4.62;;;;;;;0.66;78.59;99634.00;1672612;84;25846;-81
2021/12/03 06:48:14;;;;;;;6.15;4.83;;;;;;;0.66;78.09;99641.91;1672154;84;27473;-81
2021/12/03 06:50:42;;;;;;;7.37;5.83;;;;;;;0.65;78.16;99638.95;1671989;85;26029;-81
2021/12/03 06:53:12;;;;;;;7.78;4.67;;;;;;;0.66;78.17;99652.45;1647497;85;25872;-81
2021/12/03 06:55:48;;;;;;;9.45;5.50;;;;;;;0.66;78.28;99658.23;1649661;86;25993;-81
2021/12/03 06:58:06;;;;;;;10.25;6.33;;;;;;;0.65;78.43;99654.76;1649263;85;26779;-81
2021/12/03 07:00:32;;;;;;;7.55;5.87;;;;;;;0.65;78.48;99656.55;1649722;85;27645;-81
2021/12/03 07:02:58;;;;;;;7.08;5.55;;;;;;;0.65;78.37;99657.87;1649469;85;25955;-81
2021/12/03 07:05:24;;;;;;;11.48;5.72;;;;;;;0.67;78.43;99663.83;1649825;86;25880;-81
2021/12/03 07:07:51;;;;;;;9.25;6.45;;;;;;;0.67;78.09;99663.83;1649525;86;25455;-81
2021/12/03 07:10:18;;;;;;;7.83;6.17;;;;;;;0.69;78.11;99667.14;1649693;86;26059;-81
2021/12/03 07:12:44;;;;;;;8.70;6.45;;;;;;;0.71;77.99;99665.19;1649307;86;26951;-81
2021/12/03 07:15:10;;;;;;;9.73;7.47;;;;;;;0.68;77.82;99662.86;1649287;86;25853;-82
2021/12/03 07:17:36;;;;;;;13.32;9.90;;;;;;;0.66;77.68;99664.82;1649605;86;25766;-81
2021/12/03 07:20:03;;;;;;;14.03;12.07;;;;;;;0.65;77.63;99677.64;1648818;85;25928;-81
2021/12/03 07:22:30;;;;;;;12.75;11.45;;;;;;;0.62;77.49;99666.89;1649659;86;25928;-82
2021/12/03 07:24:57;;;;;;;14.60;10.63;;;;;;;0.61;77.30;99672.32;1649445;84;28064;-81
2021/12/03 07:27:23;;;;;;;11.55;8.38;;;;;;;0.59;77.37;99682.18;1649496;85;25859;-81
2021/12/03 07:29:49;;;;;;;10.70;7.22;;;;;;;0.60;77.30;99682.03;1649562;85;25385;-81
2021/12/03 07:32:18;;;;;;;9.95;5.97;;;;;;;0.63;77.36;99690.97;1649937;85;25796;-81
2021/12/03 07:34:46;;;;;;;9.98;7.15;;;;;;;0.63;77.33;99687.02;1649531;86;25760;-81
2021/12/03 07:37:13;;;;;;;13.25;7.20;;;;;;;0.63;77.37;99690.97;1649533;85;27469;-81
2021/12/03 07:39:40;;;;;;;8.83;6.40;;;;;;;0.63;77.42;99683.55;1649623;84;25944;-81
2021/12/03 07:42:07;;;;;;;8.80;6.47;;;;;;;0.63;77.48;99690.97;1649195;85;25363;-81
2021/12/03 07:44:34;;;;;;;13.58;6.40;;;;;;;0.63;77.58;99693.61;1649397;86;25951;-81
2021/12/03 07:47:00;;;;;;;12.47;7.03;;;;;;;0.63;77.65;99698.04;1649985;86;25847;-81
2021/12/03 07:49:26;;;;;;;13.53;6.80;;;;;;;0.63;77.65;99700.19;1649252;86;27474;-81
2021/12/03 07:51:54;;;;;;;12.68;7.10;;;;;;;0.61;77.53;99704.78;1649474;86;25900;-81
2021/12/03 07:54:22;;;;;;;11.63;6.37;;;;;;;0.61;77.74;99699.52;1649695;86;26634;-81
2021/12/03 07:56:49;;;;;;;9.93;5.95;;;;;;;0.62;77.72;99704.30;1672022;85;25753;-81
2021/12/03 07:59:15;;;;;;;8.33;4.67;;;;;;;0.65;77.89;99699.56;1672052;85;25897;-81
2021/12/03 08:01:43;;;;;;;10.18;5.97;;;;;;;0.68;77.42;99703.20;1672760;85;27527;-81
2021/12/03 08:04:12;;;;;;;12.70;6.62;;;;;;;0.68;77.57;99697.93;1672141;84;25738;-81
2021/12/03 08:06:40;;;;;;;8.48;5.95;;;;;;;0.69;77.61;99697.45;1672581;83;25990;-81
2021/12/03 08:09:08;;;;;;;18.55;10.38;;;;;;;0.67;77.59;99702.04;1672294;85;26607;-81
2021/12/03 08:11:37;;;;;;;18.57;10.35;;;;;;;0.68;77.67;99692.66;1672022;84;25906;-81
2021/12/03 08:14:03;;;;;;;29.23;13.70;;;;;;;0.70;77.78;99684.15;1672329;85;28300;-81
2021/12/03 08:16:29;;;;;;;29.90;15.03;;;;;;;0.71;77.76;99696.34;1672230;84;25724;-81
2021/12/03 08:18:56;;;;;;;12.15;7.17;;;;;;;0.73;77.77;99697.02;1672458;85;25906;-81
2021/12/03 08:21:22;;;;;;;19.37;12.15;;;;;;;0.76;77.90;99690.14;1672092;85;26434;-81
2021/12/03 08:23:49;;;;;;;16.42;8.38;;;;;;;0.76;77.89;99695.42;1672352;85;26448;-80
2021/12/03 08:26:16;;;;;;;13.75;7.75;;;;;;;0.78;78.09;99687.36;1673022;85;27626;-81
2021/12/03 08:28:43;;;;;;;12.00;8.18;;;;;;;0.80;78.11;99677.49;1672171;85;26429;-81
2021/12/03 08:31:14;;;;;;;11.08;7.97;;;;;;;0.83;78.22;99684.28;1672042;85;25998;-81
2021/12/03 08:33:39;;;;;;;14.80;6.00;;;;;;;0.86;78.17;99681.33;1622708;88;25837;-81
2021/12/03 08:36:05;;;;;;;10.00;6.35;;;;;;;0.85;78.24;99675.73;1622367;88;25840;-81
2021/12/03 08:38:31;;;;;;;15.23;7.53;;;;;;;0.87;78.35;99686.96;1622226;86;27461;-81
2021/12/03 08:40:57;;;;;;;8.18;5.65;;;;;;;0.89;78.40;99680.57;1669090;84;26464;-81
2021/12/03 08:43:24;;;;;;;11.08;5.70;;;;;;;0.92;78.51;99683.41;1672163;85;25877;-81
2021/12/03 08:45:54;;;;;;;10.43;6.03;;;;;;;0.92;78.29;99692.12;1672707;84;26034;-81
2021/12/03 08:48:18;;;;;;;9.10;5.72;;;;;;;0.94;78.43;99689.36;1672277;85;25891;-81
2021/12/03 08:54:48;;;;;;;12.75;6.33;;;;;;;1.00;78.40;99680.85;1652626;85;26631;-81
2021/12/03 08:55:45;;;;;;;9.98;6.30;;;;;;;1.04;78.33;99680.89;1671817;85;25956;-81
2021/12/03 08:58:14;;;;;;;11.40;7.15;;;;;;;1.07;78.38;99683.24;1672421;84;25620;-81
2021/12/03 09:00:41;;;;;;;18.65;7.17;;;;;;;1.08;78.28;99683.56;1669717;85;25767;-81
2021/12/03 09:03:07;;;;;;;9.40;6.78;;;;;;;1.10;78.36;99678.97;1672339;85;27471;-81
2021/12/03 09:05:37;;;;;;;7.83;5.72;;;;;;;1.12;78.14;99678.33;1672131;85;25763;-81
2021/12/03 09:08:04;;;;;;;8.98;5.95;;;;;;;1.14;78.17;99683.80;1672626;84;26068;-80
2021/12/03 09:10:30;;;;;;;13.53;5.60;;;;;;;1.21;78.26;99686.20;1672624;84;25541;-81
2021/12/03 09:12:56;;;;;;;13.93;6.80;;;;;;;1.27;78.24;99680.31;1672213;84;25316;-81
2021/12/03 09:15:31;;;;;;;8.33;5.10;;;;;;;1.35;78.12;99683.02;1671488;85;28270;-81
2021/12/03 09:18:12;;;;;;;12.28;5.95;;;;;;;1.42;77.79;99681.94;1671117;85;25976;-81
2021/12/03 09:20:43;;;;;;;9.95;5.65;;;;;;;1.45;77.79;99689.56;1668454;84;25851;-81
2021/12/03 09:23:19;;;;;;;10.65;5.40;;;;;;;1.50;77.36;99684.16;1672622;84;25588;-81
2021/12/03 09:25:48;;;;;;;9.68;5.45;;;;;;;1.58;77.47;99679.45;1672497;84;25987;-81
2021/12/03 09:28:12;;;;;;;10.80;5.60;;;;;;;1.66;77.13;99676.04;1672292;84;27536;-81
2021/12/03 09:30:39;;;;;;;8.10;4.80;;;;;;;1.69;76.63;99675.23;1672634;84;25816;-82
2021/12/03 09:33:08;;;;;;;11.70;6.15;;;;;;;1.69;76.32;99672.59;1672818;84;26691;-81
2021/12/03 09:35:41;;;;;;;8.60;4.70;;;;;;;1.70;76.17;99678.70;1672384;84;26514;-81
2021/12/03 09:38:04;;;;;;;9.85;6.17;;;;;;;1.67;75.49;99674.56;1668795;85;25770;-81
2021/12/03 09:40:32;;;;;;;12.50;4.85;;;;;;;1.67;75.17;99679.84;1672484;85;27546;-81
2021/12/03 09:42:58;;;;;;;8.50;4.72;;;;;;;1.75;75.90;99672.01;1672370;84;25897;-81
2021/12/03 09:45:24;;;;;;;11.05;4.70;;;;;;;1.85;75.80;99667.94;1668407;85;25795;-81
2021/12/03 09:47:52;;;;;;;13.13;6.03;;;;;;;1.92;74.89;99666.34;1672121;85;25879;-81
2021/12/03 09:50:19;;;;;;;11.38;5.87;;;;;;;1.94;74.93;99670.50;1672230;85;25320;-81
2021/12/03 09:55:31;;;;;;;8.40;4.72;;;;;;;1.99;74.89;99675.32;1672169;84;25934;-81
2021/12/03 10:00:46;;;;;;;9.70;5.10;;;;;;;2.03;74.22;99655.53;1670354;84;25853;-81
2021/12/03 10:14:32;;;;;;;8.25;4.83;;;;;;;2.26;74.08;99652.21;1666296;85;25457;-81
2021/12/03 10:17:34;;;;;;;8.73;5.47;;;;;;;2.31;73.87;99657.83;1671635;85;26687;-81
2021/12/03 10:28:29;;;;;;;13.98;6.15;;;;;;;2.40;73.79;99646.81;1672172;85;25684;-81
2021/12/03 10:31:18;;;;;;;7.80;4.60;;;;;;;2.40;73.20;99633.59;1622996;88;25777;-81
2021/12/03 10:38:53;;;;;;;15.32;5.58;;;;;;;2.42;74.03;99628.17;1623970;88;25514;-82
2021/12/03 10:49:29;;;;;;;25.08;18.23;;;;;;;2.41;72.44;99643.20;1623378;88;25968;-81
2021/12/03 10:51:54;;;;;;;20.25;8.40;;;;;;;2.41;73.16;99646.33;1621934;88;25887;-81
2021/12/03 11:27:26;;;;;;;9.65;4.95;;;;;;;2.40;73.49;99659.19;1564196;90;27721;-79
2021/12/03 11:51:58;;;;;;;26.52;12.37;;;;;;;2.24;74.63;99668.72;1671243;85;25816;-79
2021/12/03 11:59:49;;;;;;;24.12;14.98;;;;;;;2.35;74.73;99671.06;1673365;84;25847;-79
2021/12/03 12:16:10;;;;;;;11.48;5.97;;;;;;;2.37;75.14;99680.66;1673698;84;25490;-80
2021/12/03 12:27:25;;;;;;;30.07;12.10;;;;;;;2.29;74.78;99690.20;1674409;84;25795;-79
2021/12/03 13:11:48;;;;;;;13.83;7.35;;;;;;;2.15;76.70;99734.85;1646813;87;26249;-80
2021/12/03 13:24:50;;;;;;;22.58;9.55;;;;;;;2.21;76.55;99740.83;1646936;87;25522;-79
2021/12/03 13:30:48;;;;;;;20.90;9.65;;;;;;;2.23;76.55;99734.90;1693873;84;26950;-79
2021/12/03 13:32:52;;;;;;;27.77;13.08;;;;;;;2.23;76.47;99742.34;1648356;85;26014;-79
2021/12/03 13:44:56;;;;;;;22.30;10.38;;;;;;;2.29;76.44;99752.29;1701209;83;27548;-79
2021/12/03 14:05:36;;;;;;;22.20;9.38;;;;;;;2.38;76.16;99774.31;1673295;85;26500;-80
2021/12/03 14:10:53;;;;;;;44.55;19.42;;;;;;;2.37;75.56;99781.09;1652713;84;27664;-79
2021/12/03 14:33:45;;;;;;;27.13;12.53;;;;;;;2.17;75.63;99798.92;1681367;84;26155;-79
2021/12/03 14:43:22;;;;;;;16.55;8.75;;;;;;;2.06;76.02;99809.72;1681537;85;25933;-80
2021/12/03 14:48:35;;;;;;;16.80;8.20;;;;;;;2.03;76.30;99820.61;1681366;84;26026;-79
2021/12/03 14:53:16;;;;;;;27.62;11.57;;;;;;;2.01;76.59;99826.02;1681771;84;25853;-80
2021/12/03 14:55:33;;;;;;;23.85;10.53;;;;;;;2.04;76.60;99833.66;1682559;83;25927;-80
2021/12/03 14:58:16;;;;;;;147.43;49.33;;;;;;;2.06;76.58;99833.50;1681503;85;25968;-79
2021/12/03 15:03:22;;;;;;;49.33;16.35;;;;;;;2.11;76.57;99837.84;1676281;84;26936;-79
2021/12/03 15:08:12;;;;;;;20.37;7.80;;;;;;;2.16;76.51;99836.91;1680782;85;25855;-79
2021/12/03 15:11:12;;;;;;;17.62;7.40;;;;;;;2.18;76.40;99846.84;1678808;85;25779;-79
2021/12/03 15:16:27;;;;;;;15.78;6.67;;;;;;;2.21;76.18;99834.63;1681227;84;28340;-80
2021/12/03 15:18:46;;;;;;;24.40;12.75;;;;;;;2.21;76.06;99835.46;1678838;85;25840;-79
2021/12/03 15:21:25;;;;;;;18.75;9.33;;;;;;;2.21;76.13;99838.59;1683472;83;25943;-79
2021/12/03 15:23:45;;;;;;;25.80;15.48;;;;;;;2.22;76.07;99842.39;1680746;85;25488;-79
2021/12/03 15:26:07;;;;;;;21.50;13.10;;;;;;;2.22;76.11;99842.91;1682988;83;25760;-79
2021/12/03 15:31:22;;;;;;;19.40;8.53;;;;;;;2.21;75.97;99843.87;1678327;85;25826;-80
2021/12/03 15:33:52;;;;;;;18.87;8.90;;;;;;;2.19;76.01;99841.39;1677700;85;25745;-79
2021/12/03 15:36:19;;;;;;;;;;;;;;;2.19;75.94;99846.67;1637507;86;25973;-80
2021/12/03 15:39:03;;;;;;;19.80;8.08;;;;;;;2.20;75.95;99846.19;1630830;86;25903;-79
2021/12/03 15:52:38;;;;;;;15.30;6.87;;;;;;;2.28;75.95;99869.55;1666164;85;25928;-79
2021/12/03 15:57:56;;;;;;;13.95;6.97;;;;;;;2.27;75.88;99879.77;1660946;85;25786;-79
2021/12/03 16:06:01;;;;;;;19.20;8.55;;;;;;;2.32;75.99;99888.08;1661115;85;25871;-79
2021/12/03 16:16:19;;;;;;;42.95;20.05;;;;;;;2.33;75.85;99893.69;1673595;85;25825;-79
2021/12/03 16:18:36;;;;;;;22.00;11.05;;;;;;;2.35;76.06;99893.05;1676907;84;25348;-80
2021/12/03 16:23:41;;;;;;;18.48;9.90;;;;;;;2.39;75.84;99900.20;1673691;85;25803;-79
2021/12/03 16:26:11;;;;;;;18.30;8.73;;;;;;;2.42;75.63;99901.20;1672950;85;25542;-77